Airfield :
LOGIN :

Register | Disclaimer

   EN    FR    IT 

 










Legend :    VFR   Marginal VFR   IFR   Intensive IFR   Very Intensive IFR
Visi :
Ceiling :
>= 8 km
>= 3000ft
5 to 8 km
1000 to 3000 ft
1500m to 5 km
500 to 1000 ft
800 to 1500m
200 to 500 ft
< 800m
< 200 ft
Symbols :   Thunderstorms  Fog  Heavy snow  Heavy precipitations  Wind > 20 kt
SIGMETs :     Misc.  Thunderstorms  Icing  Turbulence  Mountain Waves  Volcanic Ashes







- Airport Elevation : 74 ft
- IATA code : EIN


EHEH - Eindhoven

CURRENT METAR :
  • 250825Z AUTO 28008KT 170V330 9999 SCT015 BKN020 OVC026 12/09 Q1011 WHT 28012KT 9999 FEW015 SCT020 BKN045

EXPIRED METARs :
  • 250817Z AUTO 28008KT 170V330 9999 FEW013 BKN015 OVC019 12/09 Q1011 WHT 28012KT 9999 FEW015 SCT020 BKN045
  • 250809Z AUTO 27009KT 240V310 9999 SCT014 BKN016 OVC020 11/08 Q1010 GRN 28012KT 9999 FEW015 SCT020 BKN045
  • 250755Z AUTO 28007KT 230V320 9999 SCT017 SCT021 BKN024 12/08 Q1010 WHT 28012KT 9999 FEW015 SCT020 BKN045
  • 250733Z AUTO 27011KT 230V320 9999 FEW014 OVC048 12/08 Q1010 BLU 28012KT 9999 FEW013 SCT020 BKN045
  • 250725Z AUTO 29010KT 240V320 9999 FEW013 SCT017 BKN021 12/09 Q1010 WHT 28012KT 9999 FEW013 SCT020 BKN045
  • 250706Z AUTO 30008KT 240V350 9999 FEW009 SCT011 BKN013 12/09 Q1010 GRN 27012KT 9999 FEW010 SCT015 BKN045
  • 250655Z AUTO 28007KT 240V330 9999 FEW008 SCT010 BKN013 11/10 Q1009 GRN 27012KT 9999 FEW010 SCT015 BKN045
  • 250646Z AUTO 28009KT 230V340 9999 FEW010 SCT015 BKN019 11/10 Q1009 WHT 27014KT 9999 FEW010 SCT015 BKN045
  • 250625Z AUTO 26012G22KT 210V320 8000 SHRA +DZ FEW002 BKN010 BKN012 FEW015CB 12/10 Q1009 GRN 26012G22KT 9999 FEW010 SCT015 BKN045 TEMPO 4000 RADZ SHRA FEW007 SCT015CB BKN020
  • 250555Z AUTO 24012KT 200V290 9999 FEW008 SCT010 BKN048 12/10 Q1008 GRN 26012G22KT 9999 FEW010 SCT015 BKN045 TEMPO 4000 RADZ SHRA FEW007 SCT015CB BKN025

TAF TAF EHEH
Valid from the 25 at 06:00 until the 26 at 12:00 UTC


250525Z 2506/2612 25012G22KT 9999 SCT012 BKN020
TEMPO 2506/2508 3500 RADZ SHRA SCT006 BKN010 BKN015 SCT018CB
BECMG 2507/2510 27012KT BKN025
PROB40
TEMPO 2508/2602 28012G25KT 4500 SHRA SCT020CB BKN025
BECMG 2518/2520 23008KT
PROB30
TEMPO 2519/2524 3500 SHRAGS TSRAGS FEW012 BKN020CB
BECMG 2523/2601 25010G20KT
No reported NOTAMs for that airfield.



MET'MAP, your aeronautical weather chart ! - Copyright ORBIFLY December 2007 - Disclaimer

ORBIFLY MET'MAP TEAM :

Programming & Development : Alexandra Zaïnal
Concept & Development : Baudouin d'Aumeries
Co-Development & Prog : Marc-Olivier Méhu
Technical & hardware support : Manuel Goepfert

Contact : metmap@orbifly.com




SOURCES & CREDITS :

   NOAA